sensor_id;sensor_type;location;lat;lon;timestamp;temperature;humidity
10864;DHT22;5485;37.558;126.950;2023-05-29T00:00:03;20.30;99.90
10864;DHT22;5485;37.558;126.950;2023-05-29T00:02:34;20.40;99.90
10864;DHT22;5485;37.558;126.950;2023-05-29T00:05:01;20.60;99.90
10864;DHT22;5485;37.558;126.950;2023-05-29T00:07:32;20.60;99.90
10864;DHT22;5485;37.558;126.950;2023-05-29T00:09:59;20.60;99.90
10864;DHT22;5485;37.558;126.950;2023-05-29T00:12:28;20.90;99.90
10864;DHT22;5485;37.558;126.950;2023-05-29T00:14:55;21.00;99.90
10864;DHT22;5485;37.558;126.950;2023-05-29T00:17:22;21.30;99.90
10864;DHT22;5485;37.558;126.950;2023-05-29T00:19:49;21.40;99.90
10864;DHT22;5485;37.558;126.950;2023-05-29T00:22:19;21.70;99.90
10864;DHT22;5485;37.558;126.950;2023-05-29T00:24:46;21.90;99.90
10864;DHT22;5485;37.558;126.950;2023-05-29T00:27:13;22.10;99.90
10864;DHT22;5485;37.558;126.950;2023-05-29T00:29:43;22.50;99.90
10864;DHT22;5485;37.558;126.950;2023-05-29T00:32:10;22.70;99.90
10864;DHT22;5485;37.558;126.950;2023-05-29T00:34:37;22.90;99.90
10864;DHT22;5485;37.558;126.950;2023-05-29T00:37:04;22.70;99.90
10864;DHT22;5485;37.558;126.950;2023-05-29T00:39:30;22.60;52.70
10864;DHT22;5485;37.558;126.950;2023-05-29T00:41:57;22.70;1.00
10864;DHT22;5485;37.558;126.950;2023-05-29T00:44:24;22.90;1.00
10864;DHT22;5485;37.558;126.950;2023-05-29T00:46:53;23.10;1.00
10864;DHT22;5485;37.558;126.950;2023-05-29T00:49:22;23.60;1.00
10864;DHT22;5485;37.558;126.950;2023-05-29T00:51:52;24.00;1.00
10864;DHT22;5485;37.558;126.950;2023-05-29T00:54:26;24.20;99.90
10864;DHT22;5485;37.558;126.950;2023-05-29T00:56:53;24.20;99.90
10864;DHT22;5485;37.558;126.950;2023-05-29T00:59:21;24.10;99.90
10864;DHT22;5485;37.558;126.950;2023-05-29T01:01:52;24.00;99.90
10864;DHT22;5485;37.558;126.950;2023-05-29T01:04:20;24.00;99.90
10864;DHT22;5485;37.558;126.950;2023-05-29T01:06:50;23.80;99.90
10864;DHT22;5485;37.558;126.950;2023-05-29T01:09:18;23.80;99.90
10864;DHT22;5485;37.558;126.950;2023-05-29T01:14:51;23.80;99.90
10864;DHT22;5485;37.558;126.950;2023-05-29T01:17:32;23.80;99.90
10864;DHT22;5485;37.558;126.950;2023-05-29T01:20:12;24.00;99.90
10864;DHT22;5485;37.558;126.950;2023-05-29T01:28:20;24.60;99.90
10864;DHT22;5485;37.558;126.950;2023-05-29T01:30:50;24.60;99.90
10864;DHT22;5485;37.558;126.950;2023-05-29T01:33:18;24.70;99.90
10864;DHT22;5485;37.558;126.950;2023-05-29T01:35:46;24.80;99.90
10864;DHT22;5485;37.558;126.950;2023-05-29T01:38:13;24.90;99.90
10864;DHT22;5485;37.558;126.950;2023-05-29T01:40:40;24.80;99.90
10864;DHT22;5485;37.558;126.950;2023-05-29T01:43:07;24.80;99.90
10864;DHT22;5485;37.558;126.950;2023-05-29T01:45:35;24.80;99.90
10864;DHT22;5485;37.558;126.950;2023-05-29T01:48:03;24.70;99.90
10864;DHT22;5485;37.558;126.950;2023-05-29T01:50:31;24.80;99.90
10864;DHT22;5485;37.558;126.950;2023-05-29T01:52:58;24.60;99.90
10864;DHT22;5485;37.558;126.950;2023-05-29T01:55:25;24.50;99.90
10864;DHT22;5485;37.558;126.950;2023-05-29T01:57:52;24.60;99.90
10864;DHT22;5485;37.558;126.950;2023-05-29T02:00:20;24.40;99.90
10864;DHT22;5485;37.558;126.950;2023-05-29T02:02:48;24.30;99.90
10864;DHT22;5485;37.558;126.950;2023-05-29T02:05:15;24.30;99.90
10864;DHT22;5485;37.558;126.950;2023-05-29T02:07:43;24.30;99.90
10864;DHT22;5485;37.558;126.950;2023-05-29T02:10:10;24.30;99.90
10864;DHT22;5485;37.558;126.950;2023-05-29T02:12:37;24.30;99.90
10864;DHT22;5485;37.558;126.950;2023-05-29T02:15:04;24.20;99.90
10864;DHT22;5485;37.558;126.950;2023-05-29T02:17:34;24.40;99.90
10864;DHT22;5485;37.558;126.950;2023-05-29T02:20:02;24.60;99.90
10864;DHT22;5485;37.558;126.950;2023-05-29T02:22:33;24.80;99.90
10864;DHT22;5485;37.558;126.950;2023-05-29T02:25:00;24.80;99.90
10864;DHT22;5485;37.558;126.950;2023-05-29T02:27:27;25.00;99.90
10864;DHT22;5485;37.558;126.950;2023-05-29T02:29:54;25.00;99.90
10864;DHT22;5485;37.558;126.950;2023-05-29T02:32:21;25.00;99.90
10864;DHT22;5485;37.558;126.950;2023-05-29T02:34:48;25.00;99.90
10864;DHT22;5485;37.558;126.950;2023-05-29T02:37:15;25.00;99.90
10864;DHT22;5485;37.558;126.950;2023-05-29T02:39:42;25.40;99.90
10864;DHT22;5485;37.558;126.950;2023-05-29T02:42:09;25.60;99.90
10864;DHT22;5485;37.558;126.950;2023-05-29T02:44:36;25.70;99.90
10864;DHT22;5485;37.558;126.950;2023-05-29T02:47:03;25.80;99.90
10864;DHT22;5485;37.558;126.950;2023-05-29T02:49:30;25.90;99.90
10864;DHT22;5485;37.558;126.950;2023-05-29T02:51:57;25.90;99.90
10864;DHT22;5485;37.558;126.950;2023-05-29T02:54:24;25.60;99.90
10864;DHT22;5485;37.558;126.950;2023-05-29T02:56:52;25.50;99.90
10864;DHT22;5485;37.558;126.950;2023-05-29T02:59:19;25.40;99.90
10864;DHT22;5485;37.558;126.950;2023-05-29T03:01:46;25.50;91.60
10864;DHT22;5485;37.558;126.950;2023-05-29T03:04:14;25.40;95.70
10864;DHT22;5485;37.558;126.950;2023-05-29T03:06:41;25.30;99.90
10864;DHT22;5485;37.558;126.950;2023-05-29T03:09:08;25.30;99.90
10864;DHT22;5485;37.558;126.950;2023-05-29T03:11:34;25.40;99.90
10864;DHT22;5485;37.558;126.950;2023-05-29T03:14:02;25.80;99.90
10864;DHT22;5485;37.558;126.950;2023-05-29T03:16:29;26.10;99.90
10864;DHT22;5485;37.558;126.950;2023-05-29T03:18:56;26.30;92.80
10864;DHT22;5485;37.558;126.950;2023-05-29T03:21:22;26.20;71.90
10864;DHT22;5485;37.558;126.950;2023-05-29T03:23:49;26.10;91.20
10864;DHT22;5485;37.558;126.950;2023-05-29T03:26:16;26.00;71.70
10864;DHT22;5485;37.558;126.950;2023-05-29T03:28:43;26.00;71.70
10864;DHT22;5485;37.558;126.950;2023-05-29T03:31:10;25.90;71.70
10864;DHT22;5485;37.558;126.950;2023-05-29T03:33:37;26.00;72.00
10864;DHT22;5485;37.558;126.950;2023-05-29T03:36:05;26.00;71.70
10864;DHT22;5485;37.558;126.950;2023-05-29T03:38:34;26.00;49.80
10864;DHT22;5485;37.558;126.950;2023-05-29T03:41:00;26.10;55.70
10864;DHT22;5485;37.558;126.950;2023-05-29T03:43:27;26.20;38.70
10864;DHT22;5485;37.558;126.950;2023-05-29T03:45:54;26.30;46.20
10864;DHT22;5485;37.558;126.950;2023-05-29T03:48:21;26.70;35.80
10864;DHT22;5485;37.558;126.950;2023-05-29T03:50:51;27.00;27.30
10864;DHT22;5485;37.558;126.950;2023-05-29T03:53:20;27.10;7.10
10864;DHT22;5485;37.558;126.950;2023-05-29T03:55:47;27.10;4.70
10864;DHT22;5485;37.558;126.950;2023-05-29T03:58:14;26.90;16.10
10864;DHT22;5485;37.558;126.950;2023-05-29T04:00:43;26.70;23.30
10864;DHT22;5485;37.558;126.950;2023-05-29T04:03:09;26.60;30.40
10864;DHT22;5485;37.558;126.950;2023-05-29T04:05:37;26.50;41.10
10864;DHT22;5485;37.558;126.950;2023-05-29T04:08:04;26.50;51.50
10864;DHT22;5485;37.558;126.950;2023-05-29T04:10:31;26.50;32.80
10864;DHT22;5485;37.558;126.950;2023-05-29T04:13:01;26.60;22.00
10864;DHT22;5485;37.558;126.950;2023-05-29T04:15:28;26.70;11.20
10864;DHT22;5485;37.558;126.950;2023-05-29T04:17:56;26.80;12.00
10864;DHT22;5485;37.558;126.950;2023-05-29T04:20:23;27.10;1.00
10864;DHT22;5485;37.558;126.950;2023-05-29T04:22:52;27.30;1.00
10864;DHT22;5485;37.558;126.950;2023-05-29T04:25:19;27.60;1.00
10864;DHT22;5485;37.558;126.950;2023-05-29T04:27:46;27.50;1.00
10864;DHT22;5485;37.558;126.950;2023-05-29T04:30:16;27.50;1.00
10864;DHT22;5485;37.558;126.950;2023-05-29T04:32:43;27.80;1.00
10864;DHT22;5485;37.558;126.950;2023-05-29T04:35:10;28.00;1.00
10864;DHT22;5485;37.558;126.950;2023-05-29T04:37:38;28.10;1.00
10864;DHT22;5485;37.558;126.950;2023-05-29T04:40:09;28.20;1.00
10864;DHT22;5485;37.558;126.950;2023-05-29T04:42:39;28.50;1.00
10864;DHT22;5485;37.558;126.950;2023-05-29T04:45:12;28.50;1.00
10864;DHT22;5485;37.558;126.950;2023-05-29T04:47:41;28.80;1.00
10864;DHT22;5485;37.558;126.950;2023-05-29T04:50:12;28.60;1.00
10864;DHT22;5485;37.558;126.950;2023-05-29T04:52:39;28.70;1.00
10864;DHT22;5485;37.558;126.950;2023-05-29T04:55:06;28.80;1.00
10864;DHT22;5485;37.558;126.950;2023-05-29T04:57:33;28.80;1.00
10864;DHT22;5485;37.558;126.950;2023-05-29T05:00:00;28.60;1.00
10864;DHT22;5485;37.558;126.950;2023-05-29T05:02:27;28.60;1.00
10864;DHT22;5485;37.558;126.950;2023-05-29T05:04:58;28.80;1.00
10864;DHT22;5485;37.558;126.950;2023-05-29T05:07:25;28.80;1.00
10864;DHT22;5485;37.558;126.950;2023-05-29T05:09:52;28.70;1.00
10864;DHT22;5485;37.558;126.950;2023-05-29T05:12:21;28.60;1.00
10864;DHT22;5485;37.558;126.950;2023-05-29T05:14:48;28.60;1.00
10864;DHT22;5485;37.558;126.950;2023-05-29T05:17:15;28.50;1.00
10864;DHT22;5485;37.558;126.950;2023-05-29T05:19:42;28.50;1.00
10864;DHT22;5485;37.558;126.950;2023-05-29T05:22:09;28.40;1.00
10864;DHT22;5485;37.558;126.950;2023-05-29T05:24:36;28.30;1.00
10864;DHT22;5485;37.558;126.950;2023-05-29T05:27:06;28.40;1.00
10864;DHT22;5485;37.558;126.950;2023-05-29T05:29:35;28.30;1.00
10864;DHT22;5485;37.558;126.950;2023-05-29T05:32:03;28.30;1.00
10864;DHT22;5485;37.558;126.950;2023-05-29T05:34:30;28.50;1.00
10864;DHT22;5485;37.558;126.950;2023-05-29T05:36:56;28.50;1.00
10864;DHT22;5485;37.558;126.950;2023-05-29T05:39:23;28.50;1.00
10864;DHT22;5485;37.558;126.950;2023-05-29T05:41:50;28.50;1.00
10864;DHT22;5485;37.558;126.950;2023-05-29T05:44:17;28.30;1.00
10864;DHT22;5485;37.558;126.950;2023-05-29T05:46:44;28.20;1.00
10864;DHT22;5485;37.558;126.950;2023-05-29T05:49:12;28.20;1.00
10864;DHT22;5485;37.558;126.950;2023-05-29T05:51:38;28.20;1.00
10864;DHT22;5485;37.558;126.950;2023-05-29T05:54:05;28.10;1.00
10864;DHT22;5485;37.558;126.950;2023-05-29T05:56:32;28.20;1.00
10864;DHT22;5485;37.558;126.950;2023-05-29T05:58:59;28.50;1.00
10864;DHT22;5485;37.558;126.950;2023-05-29T06:01:29;28.60;1.00
10864;DHT22;5485;37.558;126.950;2023-05-29T06:03:56;28.60;1.00
10864;DHT22;5485;37.558;126.950;2023-05-29T06:06:23;28.80;1.00
10864;DHT22;5485;37.558;126.950;2023-05-29T06:08:50;28.80;1.00
10864;DHT22;5485;37.558;126.950;2023-05-29T06:11:20;28.90;1.00
10864;DHT22;5485;37.558;126.950;2023-05-29T06:13:47;29.10;1.00
10864;DHT22;5485;37.558;126.950;2023-05-29T06:16:14;29.10;1.00
10864;DHT22;5485;37.558;126.950;2023-05-29T06:18:41;29.10;1.00
10864;DHT22;5485;37.558;126.950;2023-05-29T06:21:08;28.90;1.00
10864;DHT22;5485;37.558;126.950;2023-05-29T06:23:35;28.60;1.00
10864;DHT22;5485;37.558;126.950;2023-05-29T06:26:07;28.60;1.00
10864;DHT22;5485;37.558;126.950;2023-05-29T06:28:34;28.60;1.00
10864;DHT22;5485;37.558;126.950;2023-05-29T06:31:12;28.40;1.00
10864;DHT22;5485;37.558;126.950;2023-05-29T06:34:20;28.40;1.00
10864;DHT22;5485;37.558;126.950;2023-05-29T06:36:47;28.30;1.00
10864;DHT22;5485;37.558;126.950;2023-05-29T06:39:14;28.30;1.00
10864;DHT22;5485;37.558;126.950;2023-05-29T06:44:22;28.30;1.00
10864;DHT22;5485;37.558;126.950;2023-05-29T06:46:53;28.30;1.00
10864;DHT22;5485;37.558;126.950;2023-05-29T06:49:20;28.20;1.00
10864;DHT22;5485;37.558;126.950;2023-05-29T06:51:47;28.10;1.00
10864;DHT22;5485;37.558;126.950;2023-05-29T06:54:14;28.10;1.00
10864;DHT22;5485;37.558;126.950;2023-05-29T06:56:41;28.30;1.00
10864;DHT22;5485;37.558;126.950;2023-05-29T06:59:10;28.50;1.00
10864;DHT22;5485;37.558;126.950;2023-05-29T07:01:37;28.70;1.00
10864;DHT22;5485;37.558;126.950;2023-05-29T07:04:04;28.80;1.00
10864;DHT22;5485;37.558;126.950;2023-05-29T07:06:31;29.10;1.00
10864;DHT22;5485;37.558;126.950;2023-05-29T07:09:00;29.10;1.00
10864;DHT22;5485;37.558;126.950;2023-05-29T07:11:27;28.80;1.00
10864;DHT22;5485;37.558;126.950;2023-05-29T07:13:57;28.70;1.00
10864;DHT22;5485;37.558;126.950;2023-05-29T07:19:21;28.70;1.00
10864;DHT22;5485;37.558;126.950;2023-05-29T07:22:06;28.60;1.00
10864;DHT22;5485;37.558;126.950;2023-05-29T07:24:35;28.70;1.00
10864;DHT22;5485;37.558;126.950;2023-05-29T07:27:03;28.90;1.00
10864;DHT22;5485;37.558;126.950;2023-05-29T07:29:30;28.90;1.00
10864;DHT22;5485;37.558;126.950;2023-05-29T07:32:09;28.90;1.00
10864;DHT22;5485;37.558;126.950;2023-05-29T07:34:42;29.10;1.00
10864;DHT22;5485;37.558;126.950;2023-05-29T07:39:45;29.20;1.00
10864;DHT22;5485;37.558;126.950;2023-05-29T07:42:12;29.20;1.00
10864;DHT22;5485;37.558;126.950;2023-05-29T07:47:10;28.90;1.00
10864;DHT22;5485;37.558;126.950;2023-05-29T07:49:37;28.90;1.00
10864;DHT22;5485;37.558;126.950;2023-05-29T07:52:06;28.90;1.00
10864;DHT22;5485;37.558;126.950;2023-05-29T07:54:33;29.00;1.00
10864;DHT22;5485;37.558;126.950;2023-05-29T07:59:29;29.10;1.00
10864;DHT22;5485;37.558;126.950;2023-05-29T08:01:56;29.00;1.00
10864;DHT22;5485;37.558;126.950;2023-05-29T08:04:28;29.00;1.00
10864;DHT22;5485;37.558;126.950;2023-05-29T08:06:55;28.90;1.00
10864;DHT22;5485;37.558;126.950;2023-05-29T08:09:25;28.90;1.00
10864;DHT22;5485;37.558;126.950;2023-05-29T08:11:52;29.00;1.00
10864;DHT22;5485;37.558;126.950;2023-05-29T08:14:19;29.10;1.00
10864;DHT22;5485;37.558;126.950;2023-05-29T08:16:46;29.20;1.00
10864;DHT22;5485;37.558;126.950;2023-05-29T08:21:56;29.10;1.00
10864;DHT22;5485;37.558;126.950;2023-05-29T08:24:23;29.10;1.00
10864;DHT22;5485;37.558;126.950;2023-05-29T08:26:50;29.10;1.00
10864;DHT22;5485;37.558;126.950;2023-05-29T08:29:17;29.20;1.00
10864;DHT22;5485;37.558;126.950;2023-05-29T08:31:47;29.30;1.00
10864;DHT22;5485;37.558;126.950;2023-05-29T08:37:03;29.10;1.00
10864;DHT22;5485;37.558;126.950;2023-05-29T08:39:31;29.00;1.00
10864;DHT22;5485;37.558;126.950;2023-05-29T08:44:40;28.90;1.00
10864;DHT22;5485;37.558;126.950;2023-05-29T08:47:07;28.90;1.00
10864;DHT22;5485;37.558;126.950;2023-05-29T08:54:58;28.60;1.00
10864;DHT22;5485;37.558;126.950;2023-05-29T08:57:29;28.40;1.00
10864;DHT22;5485;37.558;126.950;2023-05-29T09:02:47;28.30;1.00
10864;DHT22;5485;37.558;126.950;2023-05-29T09:07:58;28.30;1.00
10864;DHT22;5485;37.558;126.950;2023-05-29T09:12:57;28.20;1.00
10864;DHT22;5485;37.558;126.950;2023-05-29T09:18:35;28.20;1.00
10864;DHT22;5485;37.558;126.950;2023-05-29T09:23:37;28.30;1.00
10864;DHT22;5485;37.558;126.950;2023-05-29T09:26:14;28.30;1.00
10864;DHT22;5485;37.558;126.950;2023-05-29T09:28:51;28.30;1.00
10864;DHT22;5485;37.558;126.950;2023-05-29T09:31:18;28.30;1.00
10864;DHT22;5485;37.558;126.950;2023-05-29T09:33:50;28.30;1.00
10864;DHT22;5485;37.558;126.950;2023-05-29T09:38:52;28.10;1.00
10864;DHT22;5485;37.558;126.950;2023-05-29T09:41:23;28.00;1.00
10864;DHT22;5485;37.558;126.950;2023-05-29T09:44:10;28.10;1.00
10864;DHT22;5485;37.558;126.950;2023-05-29T09:46:40;28.00;1.00
10864;DHT22;5485;37.558;126.950;2023-05-29T09:49:25;28.00;1.00
10864;DHT22;5485;37.558;126.950;2023-05-29T09:51:56;27.90;1.00
10864;DHT22;5485;37.558;126.950;2023-05-29T09:54:27;27.80;1.00
10864;DHT22;5485;37.558;126.950;2023-05-29T09:56:58;27.80;1.00
10864;DHT22;5485;37.558;126.950;2023-05-29T09:59:28;27.70;1.00
10864;DHT22;5485;37.558;126.950;2023-05-29T10:02:08;27.60;1.00
10864;DHT22;5485;37.558;126.950;2023-05-29T10:04:37;27.50;1.00
10864;DHT22;5485;37.558;126.950;2023-05-29T10:07:12;27.30;1.00
10864;DHT22;5485;37.558;126.950;2023-05-29T10:09:56;27.10;1.00
10864;DHT22;5485;37.558;126.950;2023-05-29T10:14:51;26.60;1.00
10864;DHT22;5485;37.558;126.950;2023-05-29T10:17:25;26.50;1.00
10864;DHT22;5485;37.558;126.950;2023-05-29T10:19:54;26.40;1.00
10864;DHT22;5485;37.558;126.950;2023-05-29T10:22:25;26.20;1.00
10864;DHT22;5485;37.558;126.950;2023-05-29T10:24:53;26.10;1.00
10864;DHT22;5485;37.558;126.950;2023-05-29T10:27:31;26.00;1.00
10864;DHT22;5485;37.558;126.950;2023-05-29T10:33:13;25.80;1.00
10864;DHT22;5485;37.558;126.950;2023-05-29T10:36:07;25.70;1.00
10864;DHT22;5485;37.558;126.950;2023-05-29T10:38:47;25.50;1.00
10864;DHT22;5485;37.558;126.950;2023-05-29T10:43:57;25.30;1.00
10864;DHT22;5485;37.558;126.950;2023-05-29T10:49:22;25.10;1.00
10864;DHT22;5485;37.558;126.950;2023-05-29T10:51:51;25.00;4.10
10864;DHT22;5485;37.558;126.950;2023-05-29T10:54:25;24.90;10.10
10864;DHT22;5485;37.558;126.950;2023-05-29T10:56:57;24.90;17.30
10864;DHT22;5485;37.558;126.950;2023-05-29T10:59:27;24.80;23.80
10864;DHT22;5485;37.558;126.950;2023-05-29T11:02:10;24.80;36.50
10864;DHT22;5485;37.558;126.950;2023-05-29T11:04:37;24.80;45.00
10864;DHT22;5485;37.558;126.950;2023-05-29T11:07:04;24.70;53.70
10864;DHT22;5485;37.558;126.950;2023-05-29T11:09:33;24.60;70.60
10864;DHT22;5485;37.558;126.950;2023-05-29T11:12:17;24.60;74.80
10864;DHT22;5485;37.558;126.950;2023-05-29T11:17:32;24.40;70.40
10864;DHT22;5485;37.558;126.950;2023-05-29T11:20:05;24.40;70.50
10864;DHT22;5485;37.558;126.950;2023-05-29T11:25:27;24.30;98.00
10864;DHT22;5485;37.558;126.950;2023-05-29T11:28:20;24.30;99.90
10864;DHT22;5485;37.558;126.950;2023-05-29T11:30:57;24.30;99.90
10864;DHT22;5485;37.558;126.950;2023-05-29T11:33:29;24.30;99.90
10864;DHT22;5485;37.558;126.950;2023-05-29T11:38:32;24.10;99.90
10864;DHT22;5485;37.558;126.950;2023-05-29T11:41:07;24.10;99.90
10864;DHT22;5485;37.558;126.950;2023-05-29T11:43:38;24.10;99.90
10864;DHT22;5485;37.558;126.950;2023-05-29T11:46:34;24.00;99.90
10864;DHT22;5485;37.558;126.950;2023-05-29T11:49:01;23.90;99.90
10864;DHT22;5485;37.558;126.950;2023-05-29T11:51:28;23.80;99.90
10864;DHT22;5485;37.558;126.950;2023-05-29T11:53:55;23.80;99.90
10864;DHT22;5485;37.558;126.950;2023-05-29T11:56:26;23.60;99.90
10864;DHT22;5485;37.558;126.950;2023-05-29T11:58:55;23.60;99.90
10864;DHT22;5485;37.558;126.950;2023-05-29T12:01:24;23.50;99.90
10864;DHT22;5485;37.558;126.950;2023-05-29T12:03:54;23.50;99.90
10864;DHT22;5485;37.558;126.950;2023-05-29T12:06:34;23.40;99.90
10864;DHT22;5485;37.558;126.950;2023-05-29T12:09:03;23.40;99.90
10864;DHT22;5485;37.558;126.950;2023-05-29T12:11:34;23.30;99.90
10864;DHT22;5485;37.558;126.950;2023-05-29T12:14:03;23.20;99.90
10864;DHT22;5485;37.558;126.950;2023-05-29T12:16:32;23.20;99.90
10864;DHT22;5485;37.558;126.950;2023-05-29T12:19:00;23.20;99.90
10864;DHT22;5485;37.558;126.950;2023-05-29T12:21:27;23.10;99.90
10864;DHT22;5485;37.558;126.950;2023-05-29T12:23:54;23.10;99.90
10864;DHT22;5485;37.558;126.950;2023-05-29T12:26:24;23.00;99.90
10864;DHT22;5485;37.558;126.950;2023-05-29T12:28:53;23.00;99.90
10864;DHT22;5485;37.558;126.950;2023-05-29T12:31:28;22.90;99.90
10864;DHT22;5485;37.558;126.950;2023-05-29T12:36:36;22.90;99.90
10864;DHT22;5485;37.558;126.950;2023-05-29T12:39:09;22.80;99.90
10864;DHT22;5485;37.558;126.950;2023-05-29T12:41:38;22.80;99.90
10864;DHT22;5485;37.558;126.950;2023-05-29T12:44:06;22.80;99.90
10864;DHT22;5485;37.558;126.950;2023-05-29T12:46:41;22.80;99.90
10864;DHT22;5485;37.558;126.950;2023-05-29T12:49:17;22.90;99.90
10864;DHT22;5485;37.558;126.950;2023-05-29T12:51:47;22.90;99.90
10864;DHT22;5485;37.558;126.950;2023-05-29T12:54:15;22.90;99.90
10864;DHT22;5485;37.558;126.950;2023-05-29T12:56:43;22.80;99.90
10864;DHT22;5485;37.558;126.950;2023-05-29T12:59:15;22.80;99.90
10864;DHT22;5485;37.558;126.950;2023-05-29T13:01:42;22.70;99.90
10864;DHT22;5485;37.558;126.950;2023-05-29T13:04:12;22.70;99.90
10864;DHT22;5485;37.558;126.950;2023-05-29T13:06:39;22.60;99.90
10864;DHT22;5485;37.558;126.950;2023-05-29T13:09:06;22.60;99.90
10864;DHT22;5485;37.558;126.950;2023-05-29T13:11:35;22.60;99.90
10864;DHT22;5485;37.558;126.950;2023-05-29T13:14:02;22.70;99.90
10864;DHT22;5485;37.558;126.950;2023-05-29T13:16:29;22.70;99.90
10864;DHT22;5485;37.558;126.950;2023-05-29T13:18:56;22.70;99.90
10864;DHT22;5485;37.558;126.950;2023-05-29T13:21:23;22.60;99.90
10864;DHT22;5485;37.558;126.950;2023-05-29T13:23:50;22.60;99.90
10864;DHT22;5485;37.558;126.950;2023-05-29T13:26:18;22.50;99.90
10864;DHT22;5485;37.558;126.950;2023-05-29T13:28:45;22.50;99.90
10864;DHT22;5485;37.558;126.950;2023-05-29T13:31:12;22.50;99.90
10864;DHT22;5485;37.558;126.950;2023-05-29T13:33:39;22.40;99.90
10864;DHT22;5485;37.558;126.950;2023-05-29T13:36:06;22.40;99.90
10864;DHT22;5485;37.558;126.950;2023-05-29T13:38:33;22.30;99.90
10864;DHT22;5485;37.558;126.950;2023-05-29T13:41:00;22.30;99.90
10864;DHT22;5485;37.558;126.950;2023-05-29T13:43:27;22.30;99.90
10864;DHT22;5485;37.558;126.950;2023-05-29T13:45:54;22.20;99.90
10864;DHT22;5485;37.558;126.950;2023-05-29T13:48:20;22.20;99.90
10864;DHT22;5485;37.558;126.950;2023-05-29T13:50:48;22.20;99.90
10864;DHT22;5485;37.558;126.950;2023-05-29T13:53:14;22.20;99.90
10864;DHT22;5485;37.558;126.950;2023-05-29T13:55:41;22.20;99.90
10864;DHT22;5485;37.558;126.950;2023-05-29T13:58:08;22.20;99.90
10864;DHT22;5485;37.558;126.950;2023-05-29T14:00:35;22.20;99.90
10864;DHT22;5485;37.558;126.950;2023-05-29T14:03:02;22.20;99.90
10864;DHT22;5485;37.558;126.950;2023-05-29T14:05:29;22.20;99.90
10864;DHT22;5485;37.558;126.950;2023-05-29T14:07:56;22.10;99.90
10864;DHT22;5485;37.558;126.950;2023-05-29T14:10:23;22.10;99.90
10864;DHT22;5485;37.558;126.950;2023-05-29T14:12:53;22.10;99.90
10864;DHT22;5485;37.558;126.950;2023-05-29T14:15:24;22.10;99.90
10864;DHT22;5485;37.558;126.950;2023-05-29T14:17:51;22.10;99.90
10864;DHT22;5485;37.558;126.950;2023-05-29T14:20:20;22.10;99.90
10864;DHT22;5485;37.558;126.950;2023-05-29T14:22:47;22.00;99.90
10864;DHT22;5485;37.558;126.950;2023-05-29T14:25:14;22.00;99.90
10864;DHT22;5485;37.558;126.950;2023-05-29T14:27:41;21.90;99.90
10864;DHT22;5485;37.558;126.950;2023-05-29T14:30:10;21.90;99.90
10864;DHT22;5485;37.558;126.950;2023-05-29T14:32:38;21.80;99.90
10864;DHT22;5485;37.558;126.950;2023-05-29T14:35:05;21.80;1.00
10864;DHT22;5485;37.558;126.950;2023-05-29T14:37:32;21.80;1.00
10864;DHT22;5485;37.558;126.950;2023-05-29T14:39:59;21.80;1.00
10864;DHT22;5485;37.558;126.950;2023-05-29T14:42:26;21.80;1.00
10864;DHT22;5485;37.558;126.950;2023-05-29T14:44:54;21.80;1.00
10864;DHT22;5485;37.558;126.950;2023-05-29T14:47:21;21.70;1.00
10864;DHT22;5485;37.558;126.950;2023-05-29T14:49:47;21.70;1.00
10864;DHT22;5485;37.558;126.950;2023-05-29T14:52:16;21.70;1.00
10864;DHT22;5485;37.558;126.950;2023-05-29T14:54:43;21.80;1.00
10864;DHT22;5485;37.558;126.950;2023-05-29T14:57:09;21.80;1.00
10864;DHT22;5485;37.558;126.950;2023-05-29T14:59:36;21.90;1.00
10864;DHT22;5485;37.558;126.950;2023-05-29T15:02:03;21.80;1.00
10864;DHT22;5485;37.558;126.950;2023-05-29T15:04:30;21.80;1.00
10864;DHT22;5485;37.558;126.950;2023-05-29T15:06:57;21.80;1.00
10864;DHT22;5485;37.558;126.950;2023-05-29T15:09:24;21.80;1.00
10864;DHT22;5485;37.558;126.950;2023-05-29T15:11:51;21.80;1.00
10864;DHT22;5485;37.558;126.950;2023-05-29T15:14:18;21.80;1.00
10864;DHT22;5485;37.558;126.950;2023-05-29T15:16:45;21.80;1.00
10864;DHT22;5485;37.558;126.950;2023-05-29T15:19:12;21.70;1.00
10864;DHT22;5485;37.558;126.950;2023-05-29T15:21:39;21.70;1.00
10864;DHT22;5485;37.558;126.950;2023-05-29T15:24:06;21.60;1.00
10864;DHT22;5485;37.558;126.950;2023-05-29T15:26:34;21.60;1.00
10864;DHT22;5485;37.558;126.950;2023-05-29T15:29:03;21.60;1.00
10864;DHT22;5485;37.558;126.950;2023-05-29T15:31:29;21.50;1.00
10864;DHT22;5485;37.558;126.950;2023-05-29T15:33:56;21.50;1.00
10864;DHT22;5485;37.558;126.950;2023-05-29T15:36:23;21.50;1.00
10864;DHT22;5485;37.558;126.950;2023-05-29T15:38:50;21.40;1.00
10864;DHT22;5485;37.558;126.950;2023-05-29T15:41:17;21.40;1.00
10864;DHT22;5485;37.558;126.950;2023-05-29T15:43:44;21.30;1.00
10864;DHT22;5485;37.558;126.950;2023-05-29T15:46:11;21.30;1.00
10864;DHT22;5485;37.558;126.950;2023-05-29T15:48:37;21.30;1.00
10864;DHT22;5485;37.558;126.950;2023-05-29T15:51:04;21.30;1.00
10864;DHT22;5485;37.558;126.950;2023-05-29T15:53:31;21.30;1.00
10864;DHT22;5485;37.558;126.950;2023-05-29T15:56:01;21.30;1.00
10864;DHT22;5485;37.558;126.950;2023-05-29T15:58:31;21.20;1.00
10864;DHT22;5485;37.558;126.950;2023-05-29T16:00:58;21.20;1.00
10864;DHT22;5485;37.558;126.950;2023-05-29T16:03:24;21.20;1.00
10864;DHT22;5485;37.558;126.950;2023-05-29T16:05:51;21.20;1.00
10864;DHT22;5485;37.558;126.950;2023-05-29T16:08:18;21.20;1.00
10864;DHT22;5485;37.558;126.950;2023-05-29T16:10:45;21.10;1.00
10864;DHT22;5485;37.558;126.950;2023-05-29T16:13:12;21.10;1.00
10864;DHT22;5485;37.558;126.950;2023-05-29T16:15:39;21.10;1.00
10864;DHT22;5485;37.558;126.950;2023-05-29T16:18:06;21.10;1.00
10864;DHT22;5485;37.558;126.950;2023-05-29T16:20:33;21.00;1.00
10864;DHT22;5485;37.558;126.950;2023-05-29T16:23:01;20.90;1.00
10864;DHT22;5485;37.558;126.950;2023-05-29T16:25:29;20.90;1.00
10864;DHT22;5485;37.558;126.950;2023-05-29T16:27:56;20.90;1.00
10864;DHT22;5485;37.558;126.950;2023-05-29T16:30:23;21.00;1.00
10864;DHT22;5485;37.558;126.950;2023-05-29T16:32:50;21.00;1.00
10864;DHT22;5485;37.558;126.950;2023-05-29T16:35:17;21.00;1.00
10864;DHT22;5485;37.558;126.950;2023-05-29T16:37:44;21.10;1.00
10864;DHT22;5485;37.558;126.950;2023-05-29T16:40:11;21.10;1.00
10864;DHT22;5485;37.558;126.950;2023-05-29T16:42:38;21.10;1.00
10864;DHT22;5485;37.558;126.950;2023-05-29T16:45:05;21.10;1.00
10864;DHT22;5485;37.558;126.950;2023-05-29T16:47:33;21.10;1.00